| time (UTC) | temp F | wind direction | speed knots | gust knots | rain 1hr in | rain 24hr in | rain mn in | humidity % | barometer mb |
| 20260508003538 | 64 | 110 | 1.7 | 7.0 | 0.00 | 0.00 | 0.00 | 77 | 1017.5 |
| 20260508002517 | 64 | 101 | 2.6 | 7.8 | 0.00 | 0.00 | 0.00 | 77 | 1017.6 |
| 20260508001518 | 64 | 103 | 1.7 | 7.0 | 0.00 | 0.00 | 0.00 | 76 | 1017.6 |
| 20260508000517 | 64 | 77 | 0.9 | 4.3 | 0.00 | 0.00 | 0.00 | 76 | 1017.8 |
| 20260507235518 | 64 | 96 | 0.9 | 4.3 | 0.00 | 0.00 | 0.00 | 76 | 1018.0 |
| 20260507234517 | 63 | 103 | 0.9 | 6.1 | 0.00 | 0.00 | 0.00 | 73 | 1018.1 |
| 20260507233518 | 63 | 0.0 | 0.0 | 0.00 | 0.00 | 0.00 | 66 | 1018.1 | |
| 20260507232517 | 63 | 0.0 | 0.0 | 0.00 | 0.00 | 0.00 | 64 | 1018.0 | |
| 20260507231518 | 63 | 0.0 | 0.0 | 0.00 | 0.00 | 0.00 | 64 | 1018.2 | |
| 20260507230517 | 63 | 0.0 | 0.0 | 0.00 | 0.00 | 0.00 | 63 | 1018.2 | |
| 20260507225517 | 62 | 0.0 | 1.7 | 0.00 | 0.00 | 0.00 | 65 | 1018.1 | |
| 20260507224539 | 63 | 0.0 | 0.0 | 0.00 | 0.00 | 0.00 | 66 | 1018.0 | |
| 20260507223517 | 63 | 116 | 0.0 | 0.9 | 0.00 | 0.00 | 0.00 | 66 | 1018.1 |
| 20260507222519 | 64 | 325 | 0.0 | 1.7 | 0.00 | 0.00 | 0.00 | 69 | 1018.2 |
| 20260507221517 | 65 | 105 | 1.7 | 6.1 | 0.00 | 0.00 | 0.00 | 65 | 1018.1 |
| 20260507220517 | 63 | 0.0 | 0.0 | 0.00 | 0.00 | 0.00 | 65 | 1018.1 | |
| 20260507215517 | 63 | 0.0 | 0.0 | 0.00 | 0.00 | 0.00 | 63 | 1018.2 | |
| 20260507214517 | 63 | 0.0 | 0.0 | 0.00 | 0.00 | 0.00 | 65 | 1018.3 | |
| 20260507213516 | 63 | 0.0 | 0.0 | 0.00 | 0.00 | 0.00 | 64 | 1018.3 | |
| 20260507212517 | 63 | 0.0 | 0.0 | 0.00 | 0.00 | 0.00 | 61 | 1018.2 | |
| 20260507211516 | 64 | 0.0 | 0.0 | 0.00 | 0.00 | 0.00 | 61 | 1018.3 | |
| 20260507210517 | 64 | 0.0 | 0.0 | 0.00 | 0.00 | 0.00 | 59 | 1018.3 | |
| 20260507205517 | 64 | 37 | 0.0 | 2.6 | 0.00 | 0.00 | 0.00 | 57 | 1018.3 |
| 20260507204518 | 64 | 28 | 0.0 | 0.9 | 0.00 | 0.00 | 0.00 | 56 | 1018.1 |
| 20260507203519 | 64 | 0.0 | 0.0 | 0.00 | 0.00 | 0.00 | 56 | 1018.0 | |
| 20260507202518 | 64 | 17 | 0.9 | 2.6 | 0.00 | 0.00 | 0.00 | 61 | 1018.0 |
| 20260507201518 | 64 | 15 | 0.0 | 0.9 | 0.00 | 0.00 | 0.00 | 62 | 1018.0 |
| 20260507200518 | 64 | 53 | 0.0 | 0.9 | 0.00 | 0.00 | 0.00 | 62 | 1018.1 |
| 20260507195518 | 65 | 58 | 0.0 | 0.9 | 0.00 | 0.00 | 0.00 | 63 | 1018.0 |
| 20260507194519 | 65 | 56 | 0.0 | 0.9 | 0.00 | 0.00 | 0.00 | 63 | 1018.0 |
| 20260507193538 | 65 | 54 | 1.7 | 3.5 | 0.00 | 0.00 | 0.00 | 64 | 1018.2 |
| 20260507192542 | 65 | 300 | 2.6 | 4.3 | 0.00 | 0.00 | 0.00 | 69 | 1018.3 |
| 20260507191518 | 66 | 279 | 1.7 | 3.5 | 0.00 | 0.00 | 0.00 | 64 | 1018.0 |
| 20260507190517 | 65 | 0.0 | 0.0 | 0.00 | 0.00 | 0.00 | 63 | 1017.9 | |
| 20260507185517 | 65 | 0.0 | 0.9 | 0.00 | 0.00 | 0.00 | 65 | 1018.0 | |
| 20260507184517 | 65 | 0.0 | 0.0 | 0.00 | 0.00 | 0.00 | 67 | 1018.2 | |
| 20260507183518 | 65 | 139 | 0.0 | 1.7 | 0.00 | 0.00 | 0.00 | 67 | 1018.1 |
| 20260507182517 | 65 | 180 | 0.0 | 2.6 | 0.00 | 0.00 | 0.00 | 68 | 1018.0 |
| 20260507181519 | 66 | 319 | 0.9 | 2.6 | 0.00 | 0.00 | 0.00 | 66 | 1018.0 |
| 20260507180538 | 66 | 338 | 0.9 | 1.7 | 0.00 | 0.00 | 0.00 | 66 | 1017.9 |
| 20260507175517 | 67 | 0.0 | 0.0 | 0.00 | 0.00 | 0.00 | 66 | 1017.8 | |
| 20260507174519 | 67 | 0.0 | 0.9 | 0.00 | 0.00 | 0.00 | 66 | 1017.8 | |
| 20260507173518 | 67 | 0.0 | 0.9 | 0.00 | 0.00 | 0.00 | 66 | 1017.8 | |
| 20260507172517 | 68 | 101 | 0.9 | 2.6 | 0.00 | 0.00 | 0.00 | 65 | 1017.8 |
| 20260507171517 | 69 | 194 | 0.9 | 2.6 | 0.00 | 0.00 | 0.00 | 63 | 1017.8 |
| 20260507170517 | 70 | 0.0 | 0.0 | 0.00 | 0.00 | 0.00 | 59 | 1017.7 | |
| 20260507165518 | 71 | 0.0 | 0.0 | 0.00 | 0.00 | 0.00 | 57 | 1017.7 | |
| 20260507164518 | 72 | 171 | 0.0 | 0.9 | 0.00 | 0.00 | 0.00 | 48 | 1017.6 |
| 20260507163517 | 72 | 14 | 0.9 | 2.6 | 0.00 | 0.00 | 0.00 | 48 | 1017.6 |
| 20260507162519 | 73 | 341 | 2.6 | 5.2 | 0.00 | 0.00 | 0.00 | 50 | 1017.8 |
| 20260507161517 | 75 | 300 | 1.7 | 4.3 | 0.00 | 0.00 | 0.00 | 48 | 1017.7 |
| 20260507160517 | 77 | 354 | 0.0 | 2.6 | 0.00 | 0.00 | 0.00 | 47 | 1017.6 |
| 20260507155518 | 76 | 229 | 0.9 | 1.7 | 0.00 | 0.00 | 0.00 | 49 | 1017.6 |
| 20260507154518 | 74 | 264 | 0.9 | 2.6 | 0.00 | 0.00 | 0.00 | 49 | 1017.6 |
| 20260507153518 | 75 | 317 | 0.9 | 2.6 | 0.00 | 0.00 | 0.00 | 49 | 1017.5 |
| 20260507152538 | 75 | 224 | 0.0 | 1.7 | 0.00 | 0.00 | 0.00 | 57 | 1017.5 |
| 20260507151519 | 73 | 272 | 0.9 | 3.5 | 0.00 | 0.00 | 0.00 | 53 | 1017.4 |
| 20260507150517 | 72 | 291 | 1.7 | 3.5 | 0.00 | 0.00 | 0.00 | 54 | 1017.5 |
| 20260507145517 | 72 | 292 | 1.7 | 4.3 | 0.00 | 0.00 | 0.00 | 55 | 1017.6 |
| 20260507144517 | 72 | 300 | 1.7 | 3.5 | 0.00 | 0.00 | 0.00 | 58 | 1017.6 |
| 20260507143518 | 71 | 294 | 1.7 | 6.1 | 0.00 | 0.00 | 0.00 | 59 | 1017.7 |
| 20260507142538 | 71 | 277 | 4.3 | 8.7 | 0.00 | 0.00 | 0.00 | 62 | 1017.8 |
| 20260507141518 | 71 | 270 | 4.3 | 8.7 | 0.00 | 0.00 | 0.00 | 61 | 1017.7 |
| 20260507140518 | 71 | 268 | 4.3 | 7.8 | 0.00 | 0.00 | 0.00 | 62 | 1017.6 |
| 20260507135538 | 70 | 289 | 4.3 | 8.7 | 0.00 | 0.00 | 0.00 | 66 | 1017.7 |
| 20260507134518 | 71 | 285 | 5.2 | 8.7 | 0.00 | 0.00 | 0.00 | 65 | 1017.8 |
| 20260507133518 | 73 | 286 | 4.3 | 7.8 | 0.00 | 0.00 | 0.00 | 56 | 1017.7 |
| 20260507132518 | 72 | 286 | 2.6 | 7.0 | 0.00 | 0.00 | 0.00 | 54 | 1017.8 |
| 20260507131518 | 72 | 307 | 2.6 | 5.2 | 0.00 | 0.00 | 0.00 | 56 | 1017.9 |
| 20260507130518 | 72 | 288 | 3.5 | 7.8 | 0.00 | 0.00 | 0.00 | 52 | 1017.8 |
| 20260507125518 | 73 | 265 | 4.3 | 7.0 | 0.00 | 0.00 | 0.00 | 54 | 1017.9 |
| 20260507124519 | 72 | 320 | 2.6 | 5.2 | 0.00 | 0.00 | 0.00 | 56 | 1017.9 |
| 20260507123518 | 73 | 299 | 3.5 | 6.1 | 0.00 | 0.00 | 0.00 | 59 | 1018.0 |
| 20260507122518 | 75 | 274 | 2.6 | 7.0 | 0.00 | 0.00 | 0.00 | 59 | 1017.9 |
| 20260507121518 | 73 | 261 | 1.7 | 4.3 | 0.00 | 0.00 | 0.00 | 63 | 1018.0 |
| 20260507120518 | 73 | 297 | 3.5 | 7.0 | 0.00 | 0.00 | 0.00 | 63 | 1018.0 |
| 20260507115518 | 72 | 302 | 2.6 | 6.1 | 0.00 | 0.00 | 0.00 | 64 | 1018.0 |
| 20260507114518 | 72 | 289 | 4.3 | 8.7 | 0.00 | 0.00 | 0.00 | 65 | 1018.1 |
| 20260507113518 | 74 | 287 | 4.3 | 9.6 | 0.00 | 0.00 | 0.00 | 55 | 1018.0 |
| 20260507112518 | 76 | 289 | 4.3 | 7.8 | 0.00 | 0.00 | 0.00 | 49 | 1017.9 |
| 20260507111518 | 79 | 208 | 4.3 | 9.6 | 0.00 | 0.00 | 0.00 | 35 | 1017.9 |
| 20260507110518 | 79 | 187 | 3.5 | 7.8 | 0.00 | 0.00 | 0.00 | 36 | 1017.9 |
| 20260507105518 | 79 | 178 | 5.2 | 8.7 | 0.00 | 0.00 | 0.00 | 35 | 1018.0 |
| 20260507104518 | 78 | 168 | 4.3 | 10.4 | 0.00 | 0.00 | 0.00 | 34 | 1018.0 |
| 20260507103538 | 78 | 187 | 2.6 | 7.8 | 0.00 | 0.00 | 0.00 | 37 | 1018.0 |
| 20260507102538 | 77 | 193 | 3.5 | 10.4 | 0.00 | 0.00 | 0.00 | 39 | 1018.0 |
| 20260507101519 | 77 | 194 | 3.5 | 7.8 | 0.00 | 0.00 | 0.00 | 44 | 1018.1 |
| 20260507100518 | 77 | 175 | 4.3 | 9.6 | 0.00 | 0.00 | 0.00 | 42 | 1018.1 |
| 20260507095518 | 76 | 159 | 3.5 | 9.6 | 0.00 | 0.00 | 0.00 | 41 | 1018.1 |
| 20260507094518 | 76 | 157 | 4.3 | 9.6 | 0.00 | 0.00 | 0.00 | 43 | 1018.1 |
| 20260507093518 | 76 | 158 | 4.3 | 9.6 | 0.00 | 0.00 | 0.00 | 43 | 1018.1 |
| 20260507092518 | 75 | 172 | 4.3 | 9.6 | 0.00 | 0.00 | 0.00 | 43 | 1018.1 |
| 20260507091519 | 76 | 184 | 4.3 | 8.7 | 0.00 | 0.00 | 0.00 | 44 | 1018.3 |
| 20260507090518 | 75 | 153 | 2.6 | 7.0 | 0.00 | 0.00 | 0.00 | 45 | 1018.3 |
| 20260507085518 | 75 | 150 | 1.7 | 6.1 | 0.00 | 0.00 | 0.00 | 44 | 1018.3 |
| 20260507084518 | 75 | 155 | 1.7 | 7.0 | 0.00 | 0.00 | 0.00 | 43 | 1018.3 |
| 20260507083539 | 74 | 136 | 3.5 | 7.8 | 0.00 | 0.00 | 0.00 | 44 | 1018.4 |
| 20260507082518 | 74 | 159 | 2.6 | 8.7 | 0.00 | 0.00 | 0.00 | 45 | 1018.4 |
| 20260507081518 | 73 | 163 | 3.5 | 7.8 | 0.00 | 0.00 | 0.00 | 45 | 1018.5 |
| 20260507080518 | 73 | 149 | 3.5 | 8.7 | 0.00 | 0.00 | 0.00 | 46 | 1018.4 |
| 20260507075518 | 73 | 145 | 3.5 | 8.7 | 0.00 | 0.00 | 0.00 | 48 | 1018.3 |
| 20260507074518 | 72 | 134 | 2.6 | 7.8 | 0.00 | 0.00 | 0.00 | 49 | 1018.4 |
| 20260507073538 | 72 | 152 | 3.5 | 7.8 | 0.00 | 0.00 | 0.00 | 48 | 1018.3 |
| 20260507072518 | 72 | 132 | 3.5 | 8.7 | 0.00 | 0.00 | 0.00 | 48 | 1018.4 |
| 20260507071538 | 72 | 131 | 2.6 | 7.0 | 0.00 | 0.00 | 0.00 | 48 | 1018.4 |
| 20260507070519 | 72 | 121 | 1.7 | 7.8 | 0.00 | 0.00 | 0.00 | 50 | 1018.3 |
| 20260507065538 | 71 | 104 | 3.5 | 10.4 | 0.00 | 0.00 | 0.00 | 51 | 1018.3 |
| 20260507064518 | 71 | 102 | 4.3 | 9.6 | 0.00 | 0.00 | 0.00 | 54 | 1018.3 |
| 20260507063518 | 70 | 108 | 2.6 | 6.1 | 0.00 | 0.00 | 0.00 | 57 | 1018.4 |
| 20260507062518 | 70 | 108 | 3.5 | 7.0 | 0.00 | 0.00 | 0.00 | 59 | 1018.3 |
| 20260507061540 | 70 | 125 | 2.6 | 6.1 | 0.00 | 0.00 | 0.00 | 58 | 1018.5 |
| 20260507060518 | 70 | 138 | 1.7 | 6.1 | 0.00 | 0.00 | 0.00 | 59 | 1018.4 |
| 20260507055519 | 69 | 104 | 0.9 | 7.8 | 0.00 | 0.00 | 0.00 | 61 | 1018.3 |
| 20260507054518 | 68 | 79 | 1.7 | 7.8 | 0.00 | 0.00 | 0.00 | 61 | 1018.3 |
| 20260507053518 | 68 | 98 | 1.7 | 6.1 | 0.00 | 0.00 | 0.00 | 61 | 1018.3 |
| 20260507052538 | 67 | 68 | 1.7 | 6.1 | 0.00 | 0.00 | 0.00 | 63 | 1018.3 |
| 20260507051518 | 67 | 100 | 2.6 | 9.6 | 0.00 | 0.00 | 0.00 | 62 | 1018.2 |
| 20260507050518 | 67 | 85 | 0.9 | 6.1 | 0.00 | 0.00 | 0.00 | 63 | 1018.0 |
| 20260507045518 | 66 | 81 | 0.9 | 5.2 | 0.00 | 0.00 | 0.00 | 65 | 1018.2 |
| 20260507044519 | 65 | 73 | 0.0 | 4.3 | 0.00 | 0.00 | 0.00 | 66 | 1018.0 |
| 20260507043518 | 64 | 44 | 0.9 | 4.3 | 0.00 | 0.00 | 0.00 | 67 | 1017.8 |
| 20260507042518 | 62 | 76 | 0.0 | 3.5 | 0.00 | 0.00 | 0.00 | 68 | 1017.6 |
| 20260507041540 | 62 | 50 | 1.7 | 4.3 | 0.00 | 0.00 | 0.00 | 66 | 1017.6 |
| 20260507040518 | 62 | 100 | 0.9 | 5.2 | 0.00 | 0.00 | 0.00 | 65 | 1017.3 |
| 20260507035518 | 61 | 80 | 0.0 | 2.6 | 0.00 | 0.00 | 0.00 | 65 | 1017.1 |
| 20260507034539 | 61 | 70 | 0.0 | 4.3 | 0.00 | 0.00 | 0.00 | 66 | 1017.1 |
| 20260507033558 | 60 | 100 | 0.9 | 3.5 | 0.00 | 0.00 | 0.00 | 67 | 1016.9 |
| 20260507032519 | 60 | 73 | 0.9 | 3.5 | 0.00 | 0.00 | 0.00 | 68 | 1016.8 |
| 20260507031518 | 60 | 85 | 0.9 | 3.5 | 0.00 | 0.00 | 0.00 | 69 | 1016.8 |
| 20260507030518 | 61 | 106 | 0.9 | 4.3 | 0.00 | 0.00 | 0.00 | 67 | 1016.6 |
| 20260507025518 | 61 | 104 | 2.6 | 7.0 | 0.00 | 0.00 | 0.00 | 67 | 1016.3 |
| 20260507024538 | 61 | 106 | 2.6 | 6.1 | 0.00 | 0.00 | 0.00 | 66 | 1016.2 |
| 20260507023518 | 59 | 128 | 0.0 | 0.9 | 0.00 | 0.00 | 0.00 | 66 | 1016.4 |
| 20260507022518 | 60 | 0.0 | 0.9 | 0.00 | 0.00 | 0.00 | 64 | 1016.6 | |
| 20260507021518 | 60 | 28 | 0.0 | 1.7 | 0.00 | 0.00 | 0.00 | 64 | 1016.6 |
| 20260507020539 | 60 | 76 | 0.9 | 3.5 | 0.00 | 0.00 | 0.00 | 63 | 1016.5 |
| 20260507015538 | 60 | 0.0 | 1.7 | 0.00 | 0.00 | 0.00 | 64 | 1016.5 | |
| 20260507014538 | 60 | 21 | 0.0 | 1.7 | 0.00 | 0.00 | 0.00 | 63 | 1016.5 |
| 20260507013517 | 59 | 37 | 0.0 | 0.9 | 0.00 | 0.00 | 0.00 | 65 | 1016.6 |
| 20260507012518 | 60 | 15 | 0.0 | 1.7 | 0.00 | 0.00 | 0.00 | 64 | 1016.5 |
| 20260507011518 | 60 | 19 | 0.9 | 2.6 | 0.00 | 0.00 | 0.00 | 64 | 1016.5 |
| 20260507010518 | 59 | 26 | 0.9 | 2.6 | 0.00 | 0.00 | 0.00 | 64 | 1016.4 |
| 20260507005539 | 59 | 0.0 | 0.0 | 0.00 | 0.00 | 0.00 | 67 | 1016.4 | |
| 20260507004538 | 59 | 20 | 0.0 | 0.9 | 0.00 | 0.00 | 0.00 | 67 | 1016.3 |